Eko 4 — SVAR8 — position and weather

sailwx.info

Track history (hours):
 
Tides and Currents Weather Stations Pressure Air Temp Water Temp Dewpoint Dewpoint Depression Visibility Wind Speed Wind Dir Waves Ship Positions

Eko 4

Last reported at 2017-Jun-23 21:14 UTC. Time now 2017-Jun-26 19:06 UTC.
Position N 37°19' E 024°17'.

Length 88 m; draft 5.5 m.

Type: Ship (hazmat cat A). MMSI: 240912000.

Date/timePositionNaut miles runAvg speedWind from/ knotsBaromVisibWave heightAir tempDewpointWater temp
2017-Jun-23 21:14N 37°19' E 024°17'2 9.8
2017-Jun-23 21:00N 37°21' E 024°14'5 9.8
2017-Jun-23 20:30N 37°24' E 024°10'510.0
2017-Jun-23 20:00N 37°27' E 024°05'510.0
2017-Jun-23 19:30N 37°30' E 023°60'5 9.8
2017-Jun-23 19:00N 37°33' E 023°55'5 9.7
2017-Jun-23 18:30N 37°36' E 023°50'5 9.8
2017-Jun-23 18:00N 37°38' E 023°45'5 9.2
2017-Jun-23 17:30N 37°42' E 023°41'5 9.2
2017-Jun-23 17:00N 37°46' E 023°39'4 8.5
2017-Jun-23 16:31N 37°50' E 023°35'5 9.3
2017-Jun-23 16:00N 37°50' E 023°30'5 9.0
2017-Jun-23 15:30N 37°51' E 023°24'5 9.1
2017-Jun-23 15:00N 37°52' E 023°18'5 9.3
2017-Jun-23 14:29N 37°53' E 023°12'5 0.2
2017-Jun-22 12:34N 37°55' E 023°06'0 0.3
2017-Jun-22 12:28N 37°55' E 023°06'2 3.4
2017-Jun-22 12:01N 37°54' E 023°08'5 9.0
2017-Jun-22 11:31N 37°52' E 023°13'510.0
2017-Jun-22 11:01N 37°51' E 023°19'510.1
2017-Jun-22 10:31N 37°50' E 023°25'510.0
2017-Jun-22 10:00N 37°50' E 023°32'5 9.8
2017-Jun-22 09:30N 37°49' E 023°38'5 9.3
2017-Jun-22 09:00N 37°46' E 023°42'510.0
2017-Jun-22 08:30N 37°41' E 023°45'5 9.7
2017-Jun-22 08:00N 37°37' E 023°49'5 9.5
2017-Jun-22 07:30N 37°34' E 023°52'  
2017-Jun-18 05:57N 37°37' E 023°47'4 9.3
2017-Jun-18 05:31N 37°39' E 023°43'5 9.2
2017-Jun-18 05:00N 37°43' E 023°40'5 9.5
2017-Jun-18 04:31N 37°48' E 023°38'4 8.3
2017-Jun-18 04:01N 37°50' E 023°33'4 8.9
2017-Jun-18 03:31N 37°50' E 023°27'5 9.1
2017-Jun-18 03:00N 37°52' E 023°22'9 9.4
2017-Jun-18 02:02N 37°53' E 023°10'3 0.1
2017-Jun-16 06:13N 37°55' E 023°06'0 0.0
2017-Jun-16 00:58N 37°55' E 023°06'0 0.0
2017-Jun-16 00:22N 37°55' E 023°06'0 0.0
2017-Jun-15 16:10N 37°55' E 023°06'0 0.9
2017-Jun-15 15:58N 37°55' E 023°06'3 5.4
2017-Jun-15 15:30N 37°53' E 023°09'510.3
2017-Jun-15 15:00N 37°52' E 023°15'510.5
2017-Jun-15 14:31N 37°51' E 023°22'9 9.3
2017-Jun-15 13:30N 37°52' E 023°33'3 6.8
2017-Jun-15 13:00N 37°56' E 023°34'0 0.0
2017-Jun-15 12:30N 37°56' E 023°34'0 0.0
2017-Jun-15 12:00N 37°56' E 023°34'0 0.0
2017-Jun-15 11:30N 37°56' E 023°34'0 0.0
2017-Jun-15 11:01N 37°56' E 023°34'0 0.1
2017-Jun-15 10:31N 37°56' E 023°34'3 5.7
2017-Jun-15 10:01N 37°53' E 023°36'510.5
2017-Jun-15 09:30N 37°49' E 023°40'510.8
2017-Jun-15 09:00N 37°44' E 023°43'610.8
2017-Jun-15 08:30N 37°39' E 023°45'  
Track history (hours):
 
Tides and Currents Weather Stations Pressure Air Temp Water Temp Dewpoint Dewpoint Depression Visibility Wind Speed Wind Dir Waves Ship Positions

Eko 4

Last reported at 2017-Jun-23 21:14 UTC. Time now 2017-Jun-26 19:06 UTC.
Position N 37°19' E 024°17'.

Length 88 m; draft 5.5 m.

Type: Ship (hazmat cat A). MMSI: 240912000.

Date/timePositionNaut miles runAvg speedWind from/ knotsBaromVisibWave heightAir tempDewpointWater temp
2017-Jun-23 21:14N 37°19' E 024°17'2 9.8
2017-Jun-23 21:00N 37°21' E 024°14'5 9.8
2017-Jun-23 20:30N 37°24' E 024°10'510.0
2017-Jun-23 20:00N 37°27' E 024°05'510.0
2017-Jun-23 19:30N 37°30' E 023°60'5 9.8
2017-Jun-23 19:00N 37°33' E 023°55'5 9.7
2017-Jun-23 18:30N 37°36' E 023°50'5 9.8
2017-Jun-23 18:00N 37°38' E 023°45'5 9.2
2017-Jun-23 17:30N 37°42' E 023°41'5 9.2
2017-Jun-23 17:00N 37°46' E 023°39'4 8.5
2017-Jun-23 16:31N 37°50' E 023°35'5 9.3
2017-Jun-23 16:00N 37°50' E 023°30'5 9.0
2017-Jun-23 15:30N 37°51' E 023°24'5 9.1
2017-Jun-23 15:00N 37°52' E 023°18'5 9.3
2017-Jun-23 14:29N 37°53' E 023°12'5 0.2
2017-Jun-22 12:34N 37°55' E 023°06'0 0.3
2017-Jun-22 12:28N 37°55' E 023°06'2 3.4
2017-Jun-22 12:01N 37°54' E 023°08'5 9.0
2017-Jun-22 11:31N 37°52' E 023°13'510.0
2017-Jun-22 11:01N 37°51' E 023°19'510.1
2017-Jun-22 10:31N 37°50' E 023°25'510.0
2017-Jun-22 10:00N 37°50' E 023°32'5 9.8
2017-Jun-22 09:30N 37°49' E 023°38'5 9.3
2017-Jun-22 09:00N 37°46' E 023°42'510.0
2017-Jun-22 08:30N 37°41' E 023°45'5 9.7
2017-Jun-22 08:00N 37°37' E 023°49'5 9.5
2017-Jun-22 07:30N 37°34' E 023°52'  
2017-Jun-18 05:57N 37°37' E 023°47'4 9.3
2017-Jun-18 05:31N 37°39' E 023°43'5 9.2
2017-Jun-18 05:00N 37°43' E 023°40'5 9.5
2017-Jun-18 04:31N 37°48' E 023°38'4 8.3
2017-Jun-18 04:01N 37°50' E 023°33'4 8.9
2017-Jun-18 03:31N 37°50' E 023°27'5 9.1
2017-Jun-18 03:00N 37°52' E 023°22'9 9.4
2017-Jun-18 02:02N 37°53' E 023°10'3 0.1
2017-Jun-16 06:13N 37°55' E 023°06'0 0.0
2017-Jun-16 00:58N 37°55' E 023°06'0 0.0
2017-Jun-16 00:22N 37°55' E 023°06'0 0.0
2017-Jun-15 16:10N 37°55' E 023°06'0 0.9
2017-Jun-15 15:58N 37°55' E 023°06'3 5.4
2017-Jun-15 15:30N 37°53' E 023°09'510.3
2017-Jun-15 15:00N 37°52' E 023°15'510.5
2017-Jun-15 14:31N 37°51' E 023°22'9 9.3
2017-Jun-15 13:30N 37°52' E 023°33'3 6.8
2017-Jun-15 13:00N 37°56' E 023°34'0 0.0
2017-Jun-15 12:30N 37°56' E 023°34'0 0.0
2017-Jun-15 12:00N 37°56' E 023°34'0 0.0
2017-Jun-15 11:30N 37°56' E 023°34'0 0.0
2017-Jun-15 11:01N 37°56' E 023°34'0 0.1
2017-Jun-15 10:31N 37°56' E 023°34'3 5.7
2017-Jun-15 10:01N 37°53' E 023°36'510.5
2017-Jun-15 09:30N 37°49' E 023°40'510.8
2017-Jun-15 09:00N 37°44' E 023°43'610.8
2017-Jun-15 08:30N 37°39' E 023°45'  

Dump ship's entire track history